Time;durP1;ratioP1;P1;durP2;ratioP2;P2;SDS_P1;SDS_P2;PMS_P1;PMS_P2;Temp;Humidity;BMP_temperature;BMP_pressure;BME280_temperature;BME280_humidity;BME280_pressure;Samples;Min_cycle;Max_cycle;Signal;HPM_P1;HPM_P2
2023/07/01 00:01:01;;;;;;;1.73;1.10;;;24.20;46.00;;;;;;4993879;28;20022;-76
2023/07/01 00:03:30;;;;;;;2.10;1.42;;;24.30;45.60;;;;;;4994340;28;20060;-74
2023/07/01 00:06:01;;;;;;;1.92;1.15;;;24.20;46.10;;;;;;4993428;28;20030;-71
2023/07/01 00:08:27;;;;;;;2.47;1.17;;;24.20;46.10;;;;;;4993458;28;20074;-72
2023/07/01 00:11:00;;;;;;;2.33;1.02;;;24.20;46.10;;;;;;4993803;28;20061;-72
2023/07/01 00:13:30;;;;;;;1.98;1.10;;;24.20;46.10;;;;;;4993812;28;20393;-72
2023/07/01 00:15:56;;;;;;;3.63;0.90;;;24.30;62.80;;;;;;4993387;28;20041;-72
2023/07/01 00:18:22;;;;;;;3.28;1.33;;;24.20;46.20;;;;;;4993645;28;20018;-73
2023/07/01 00:20:49;;;;;;;2.92;0.80;;;24.20;46.30;;;;;;4993517;28;20057;-72
2023/07/01 00:23:15;;;;;;;2.55;1.15;;;24.20;46.30;;;;;;4993526;28;20033;-72
2023/07/01 00:25:41;;;;;;;1.88;1.10;;;24.10;46.20;;;;;;4993391;28;20034;-71
2023/07/01 00:28:07;;;;;;;4.43;1.08;;;24.20;46.30;;;;;;4992933;28;20070;-72
2023/07/01 00:30:33;;;;;;;3.35;1.23;;;24.20;46.30;;;;;;4993350;28;20061;-72
2023/07/01 00:33:00;;;;;;;1.85;1.00;;;24.10;46.30;;;;;;4993426;28;20549;-71
2023/07/01 00:35:26;;;;;;;1.67;1.20;;;24.10;46.30;;;;;;4993075;28;20038;-72
2023/07/01 00:37:52;;;;;;;1.05;0.80;;;24.10;46.30;;;;;;4993113;28;20136;-71
2023/07/01 00:40:19;;;;;;;1.45;1.10;;;24.20;46.40;;;;;;4992657;28;20026;-71
2023/07/01 00:42:45;;;;;;;1.70;1.25;;;24.10;46.40;;;;;;4992617;28;20468;-73
2023/07/01 00:45:11;;;;;;;1.83;1.00;;;24.10;46.30;;;;;;4992729;28;20025;-72
2023/07/01 00:47:39;;;;;;;2.97;0.98;;;24.10;46.70;;;;;;4992749;28;20101;-72
2023/07/01 00:50:09;;;;;;;1.55;1.00;;;24.10;46.50;;;;;;4992935;28;20022;-73
2023/07/01 00:52:36;;;;;;;1.98;1.20;;;24.10;46.50;;;;;;4991868;28;20551;-72
2023/07/01 00:55:01;;;;;;;2.88;1.10;;;24.10;46.50;;;;;;4992614;28;20350;-72
2023/07/01 00:57:27;;;;;;;2.05;1.10;;;24.10;46.60;;;;;;4992629;28;20025;-72
2023/07/01 00:59:53;;;;;;;1.77;1.17;;;24.00;47.20;;;;;;4992548;28;20040;-71
2023/07/01 01:02:27;;;;;;;2.33;1.10;;;24.00;46.50;;;;;;4993276;28;20018;-71
2023/07/01 01:05:10;;;;;;;2.80;1.30;;;24.00;47.40;;;;;;4992777;28;20088;-73
2023/07/01 01:08:11;;;;;;;2.53;1.48;;;24.00;46.70;;;;;;4992542;28;20018;-73
2023/07/01 01:10:42;;;;;;;2.08;1.15;;;24.00;46.80;;;;;;4951148;28;20038;-72
2023/07/01 01:13:09;;;;;;;2.53;1.30;;;24.00;47.10;;;;;;4993091;28;20106;-77
2023/07/01 01:15:36;;;;;;;3.30;1.20;;;24.00;46.70;;;;;;4993143;28;20038;-77
2023/07/01 01:18:04;;;;;;;3.55;1.13;;;24.00;46.80;;;;;;4992947;28;20026;-77
2023/07/01 01:20:33;;;;;;;2.22;1.20;;;24.10;63.40;;;;;;4992933;28;20374;-77
2023/07/01 01:23:26;;;;;;;2.55;1.30;;;24.00;46.80;;;;;;4992565;28;20041;-78
2023/07/01 01:26:02;;;;;;;3.15;1.15;;;23.90;46.80;;;;;;4958724;28;20068;-78
2023/07/01 01:28:28;;;;;;;3.03;1.60;;;24.00;46.70;;;;;;4992850;28;20091;-78
2023/07/01 01:30:54;;;;;;;3.10;1.20;;;23.90;46.80;;;;;;4993049;28;20386;-72
2023/07/01 01:33:20;;;;;;;3.72;1.42;;;23.90;46.80;;;;;;4992027;28;20034;-72
2023/07/01 01:35:47;;;;;;;2.75;1.33;;;23.90;46.90;;;;;;4992300;28;20066;-72
2023/07/01 01:38:23;;;;;;;3.00;1.27;;;23.90;46.90;;;;;;4992143;28;20031;-73
2023/07/01 01:41:21;;;;;;;2.22;1.48;;;23.90;46.90;;;;;;4992578;28;20404;-72
2023/07/01 01:43:53;;;;;;;1.98;1.02;;;23.90;47.00;;;;;;4992226;28;20030;-72
2023/07/01 01:46:21;;;;;;;3.92;1.27;;;23.90;47.70;;;;;;4992110;28;20030;-73
2023/07/01 01:48:47;;;;;;;2.13;1.23;;;23.90;47.70;;;;;;4992125;28;20023;-73
2023/07/01 01:51:14;;;;;;;2.10;1.20;;;23.80;47.00;;;;;;4992025;28;20551;-72
2023/07/01 01:53:41;;;;;;;2.47;1.40;;;23.90;47.10;;;;;;4992138;28;20023;-73
2023/07/01 01:56:08;;;;;;;1.80;1.08;;;23.80;47.20;;;;;;4990573;28;20547;-73
2023/07/01 01:58:34;;;;;;;3.88;1.20;;;23.80;47.30;;;;;;4992510;28;20022;-73
2023/07/01 02:01:00;;;;;;;2.42;1.10;;;23.80;47.30;;;;;;4991816;28;20449;-72
2023/07/01 02:03:25;;;;;;;2.30;1.33;;;23.80;47.30;;;;;;4993270;28;20038;-72
2023/07/01 02:05:51;;;;;;;1.95;1.05;;;23.80;47.30;;;;;;4995700;28;20022;-72
2023/07/01 02:08:16;;;;;;;3.47;1.25;;;23.80;47.30;;;;;;4995758;28;20026;-73
2023/07/01 02:10:42;;;;;;;1.75;1.13;;;23.80;47.30;;;;;;4996127;28;20400;-77
2023/07/01 02:13:08;;;;;;;2.05;1.40;;;23.80;47.40;;;;;;4996135;28;20026;-77
2023/07/01 02:15:33;;;;;;;2.58;1.25;;;23.80;47.50;;;;;;4995901;28;20030;-77
2023/07/01 02:17:59;;;;;;;2.83;1.48;;;23.80;47.40;;;;;;4995830;28;20529;-77
2023/07/01 02:20:25;;;;;;;2.72;1.58;;;;;;;;;;4995759;28;20046;-77
2023/07/01 02:22:51;;;;;;;2.95;1.45;;;23.70;47.00;;;;;;4995687;28;20026;-77
2023/07/01 02:25:17;;;;;;;2.38;1.02;;;23.70;47.40;;;;;;4995553;28;20027;-78
2023/07/01 02:27:42;;;;;;;1.73;1.05;;;23.70;47.50;;;;;;4994755;28;20050;-77
2023/07/01 02:30:08;;;;;;;1.88;1.13;;;23.70;48.10;;;;;;4995810;28;20041;-76
2023/07/01 02:32:34;;;;;;;2.15;1.35;;;23.70;47.60;;;;;;4995496;28;20027;-76
2023/07/01 02:34:59;;;;;;;2.85;1.10;;;23.70;48.30;;;;;;4995346;28;20030;-77
2023/07/01 02:37:25;;;;;;;1.38;1.00;;;23.70;47.70;;;;;;4995307;28;20031;-77
2023/07/01 02:39:51;;;;;;;2.83;1.15;;;23.70;47.80;;;;;;4995415;28;20026;-78
2023/07/01 02:42:19;;;;;;;2.92;1.23;;;23.70;47.70;;;;;;4995167;28;20022;-77
2023/07/01 02:44:46;;;;;;;3.30;1.20;;;23.70;47.90;;;;;;4995473;28;20030;-76
2023/07/01 02:47:12;;;;;;;2.45;1.08;;;23.60;47.80;;;;;;4993756;28;20543;-76
2023/07/01 02:49:40;;;;;;;2.28;1.08;;;23.60;48.00;;;;;;4995301;28;20477;-76
2023/07/01 02:52:10;;;;;;;3.83;1.23;;;23.60;47.80;;;;;;4994966;28;20326;-76
2023/07/01 02:54:40;;;;;;;4.68;1.35;;;23.60;47.90;;;;;;4995687;28;20034;-71
2023/07/01 02:57:07;;;;;;;1.83;1.10;;;23.60;47.90;;;;;;4993487;28;20023;-72
2023/07/01 02:59:33;;;;;;;1.30;1.10;;;23.60;47.80;;;;;;4994865;28;20113;-73
2023/07/01 03:01:58;;;;;;;2.40;1.20;;;23.40;47.80;;;;;;4993521;28;20102;-73
2023/07/01 03:04:24;;;;;;;1.33;1.20;;;24.10;48.40;;;;;;4994712;28;20564;-73
2023/07/01 03:06:49;;;;;;;2.55;1.20;;;23.60;48.00;;;;;;4994861;28;20058;-73
2023/07/01 03:09:15;;;;;;;2.08;1.02;;;23.60;48.20;;;;;;4994702;28;20113;-72
2023/07/01 03:11:41;;;;;;;1.58;0.75;;;23.60;48.80;;;;;;4994596;28;20474;-73
2023/07/01 03:14:06;;;;;;;2.35;1.17;;;23.60;48.30;;;;;;4994254;28;20469;-73
2023/07/01 03:16:32;;;;;;;2.67;1.17;;;23.60;48.20;;;;;;4993934;28;20092;-73
2023/07/01 03:18:58;;;;;;;2.15;1.10;;;23.50;48.20;;;;;;4994528;28;20026;-73
2023/07/01 03:21:27;;;;;;;1.27;1.00;;;23.60;48.30;;;;;;4994423;28;20031;-72
2023/07/01 03:23:53;;;;;;;1.08;0.75;;;23.60;48.40;;;;;;4994968;28;20543;-77
2023/07/01 03:26:19;;;;;;;2.30;1.30;;;23.60;48.30;;;;;;4994281;28;20050;-76
2023/07/01 03:28:47;;;;;;;2.65;1.02;;;23.60;48.20;;;;;;4994480;28;20030;-76
2023/07/01 03:31:13;;;;;;;2.08;1.10;;;23.50;48.30;;;;;;4994353;28;20081;-77
2023/07/01 03:33:39;;;;;;;1.88;1.10;;;23.50;48.30;;;;;;4994223;28;20022;-75
2023/07/01 03:36:04;;;;;;;1.27;0.80;;;23.50;48.50;;;;;;4994210;28;20094;-72
2023/07/01 03:38:30;;;;;;;1.55;0.85;;;23.50;48.50;;;;;;4994152;28;20026;-72
2023/07/01 03:40:55;;;;;;;1.45;1.08;;;23.50;48.50;;;;;;4993968;28;20437;-72
2023/07/01 03:43:21;;;;;;;3.30;0.90;;;23.50;48.50;;;;;;4993965;28;20193;-72
2023/07/01 03:45:47;;;;;;;1.67;0.80;;;23.50;48.60;;;;;;4993970;28;20030;-72
2023/07/01 03:48:12;;;;;;;2.13;0.98;;;23.50;48.70;;;;;;4993893;28;20026;-71
2023/07/01 03:50:38;;;;;;;1.27;1.05;;;23.50;48.70;;;;;;4993796;28;20038;-71
2023/07/01 03:53:05;;;;;;;1.70;0.85;;;23.50;48.70;;;;;;4994664;28;20074;-77
2023/07/01 03:55:30;;;;;;;1.50;1.10;;;23.50;48.60;;;;;;4993792;28;20062;-77
2023/07/01 03:57:56;;;;;;;2.00;1.13;;;23.50;48.80;;;;;;4993883;28;20097;-77
2023/07/01 04:00:21;;;;;;;3.83;1.00;;;23.40;49.50;;;;;;4993906;28;20031;-77
2023/07/01 04:02:49;;;;;;;1.85;0.98;;;23.40;48.90;;;;;;4993789;28;20516;-78
2023/07/01 04:05:15;;;;;;;1.27;1.00;;;23.50;48.80;;;;;;4993743;28;20026;-77
2023/07/01 04:07:43;;;;;;;2.75;1.13;;;23.50;49.00;;;;;;4993636;28;20127;-77
2023/07/01 04:10:10;;;;;;;0.77;0.77;;;23.50;48.80;;;;;;4993766;28;20081;-77
2023/07/01 04:12:37;;;;;;;1.55;0.77;;;23.50;49.00;;;;;;4993997;28;20014;-77
2023/07/01 04:15:11;;;;;;;0.80;0.80;;;23.50;48.90;;;;;;4993774;28;20034;-77
2023/07/01 04:17:40;;;;;;;2.38;1.10;;;23.40;49.00;;;;;;4993559;28;20108;-77
2023/07/01 04:20:06;;;;;;;1.88;0.85;;;23.40;49.00;;;;;;4993975;28;20031;-77
2023/07/01 04:22:32;;;;;;;2.70;1.25;;;23.40;49.10;;;;;;4993304;28;20027;-77
2023/07/01 04:24:58;;;;;;;1.38;0.82;;;23.40;49.20;;;;;;4993319;28;20022;-77
2023/07/01 04:27:24;;;;;;;2.15;0.70;;;23.40;49.20;;;;;;4992977;28;20050;-77
2023/07/01 04:29:50;;;;;;;0.98;0.93;;;23.40;49.20;;;;;;4993296;28;20523;-76
2023/07/01 04:32:15;;;;;;;1.25;0.82;;;23.40;49.20;;;;;;4993338;28;20026;-76
2023/07/01 04:34:41;;;;;;;1.92;0.90;;;23.40;49.30;;;;;;4993169;28;20386;-77
2023/07/01 04:37:07;;;;;;;1.05;0.95;;;;;;;;;;4993114;28;20117;-76
2023/07/01 04:39:33;;;;;;;1.00;0.80;;;23.40;48.70;;;;;;4993155;28;20120;-77
2023/07/01 04:41:58;;;;;;;1.52;0.95;;;23.40;49.30;;;;;;4993118;28;20026;-77
2023/07/01 04:44:24;;;;;;;1.35;1.00;;;23.40;49.40;;;;;;4993083;28;20022;-77
2023/07/01 04:46:50;;;;;;;1.35;1.02;;;23.40;49.40;;;;;;4992888;28;20033;-77
2023/07/01 04:49:16;;;;;;;1.42;0.82;;;23.40;49.40;;;;;;4993347;28;20026;-71
2023/07/01 04:51:42;;;;;;;1.30;0.90;;;23.40;49.40;;;;;;4992732;28;20032;-71
2023/07/01 04:54:07;;;;;;;1.60;0.98;;;23.30;49.40;;;;;;4992629;28;20026;-71
2023/07/01 04:56:33;;;;;;;1.45;1.27;;;23.30;49.40;;;;;;4992703;28;20066;-71
2023/07/01 04:59:00;;;;;;;1.83;0.95;;;23.30;49.40;;;;;;4992774;28;20026;-73
2023/07/01 05:01:26;;;;;;;1.33;1.00;;;23.30;49.60;;;;;;4992700;28;20041;-72
2023/07/01 05:03:52;;;;;;;2.17;0.95;;;23.30;49.60;;;;;;4992591;28;20057;-73
2023/07/01 05:06:17;;;;;;;0.80;0.80;;;23.30;49.70;;;;;;4992502;28;20069;-71
2023/07/01 05:08:44;;;;;;;1.80;0.88;;;23.30;49.70;;;;;;4992591;28;20057;-73
2023/07/01 05:11:09;;;;;;;1.48;1.00;;;23.30;49.60;;;;;;4991369;28;20022;-73
2023/07/01 05:13:35;;;;;;;1.23;0.90;;;23.30;49.70;;;;;;4992446;28;20028;-73
2023/07/01 05:16:01;;;;;;;1.90;1.05;;;23.20;49.80;;;;;;4992412;28;20074;-73
2023/07/01 05:18:26;;;;;;;0.85;0.75;;;23.30;50.40;;;;;;4993012;28;20026;-73
2023/07/01 05:20:52;;;;;;;2.92;0.82;;;23.30;49.80;;;;;;4992411;28;20552;-73
2023/07/01 05:23:18;;;;;;;1.30;1.20;;;23.20;49.70;;;;;;4992409;28;20023;-73
2023/07/01 05:25:43;;;;;;;1.70;0.75;;;23.30;49.80;;;;;;4992350;28;20389;-73
2023/07/01 05:28:09;;;;;;;1.52;0.95;;;23.20;49.90;;;;;;4992277;28;20046;-73
2023/07/01 05:30:35;;;;;;;1.60;0.93;;;23.20;49.80;;;;;;4992356;28;20033;-73
2023/07/01 05:33:00;;;;;;;1.67;0.90;;;23.30;49.90;;;;;;4992112;28;20022;-73
2023/07/01 05:35:26;;;;;;;1.10;0.90;;;23.20;49.90;;;;;;4992116;28;20035;-73
2023/07/01 05:37:52;;;;;;;1.02;0.80;;;23.20;49.90;;;;;;4991670;28;20354;-73
2023/07/01 05:40:18;;;;;;;1.30;0.82;;;23.20;50.00;;;;;;4992053;28;20066;-73
2023/07/01 05:42:45;;;;;;;0.85;0.75;;;23.20;50.10;;;;;;4992096;28;20023;-73
2023/07/01 05:45:11;;;;;;;1.63;0.80;;;23.20;49.90;;;;;;4992134;28;20019;-73
2023/07/01 05:47:37;;;;;;;3.38;1.35;;;23.20;50.10;;;;;;4992539;28;20027;-72
2023/07/01 05:50:03;;;;;;;2.20;0.80;;;23.20;50.10;;;;;;4991990;28;20031;-72
2023/07/01 05:52:29;;;;;;;1.75;0.75;;;23.20;50.10;;;;;;4992021;28;20446;-72
2023/07/01 05:54:55;;;;;;;1.25;0.80;;;23.20;50.20;;;;;;4991926;28;20027;-72
2023/07/01 05:57:20;;;;;;;0.60;0.60;;;23.20;50.20;;;;;;4991982;28;20366;-78
2023/07/01 05:59:46;;;;;;;1.77;0.85;;;23.20;50.20;;;;;;4992045;28;20026;-73
2023/07/01 06:02:12;;;;;;;1.17;0.70;;;23.20;50.30;;;;;;4991805;28;20034;-71
2023/07/01 06:04:37;;;;;;;1.73;0.90;;;23.20;50.30;;;;;;4991937;28;20050;-72
2023/07/01 06:07:03;;;;;;;1.45;0.70;;;23.20;50.50;;;;;;4991948;28;20492;-73
2023/07/01 06:09:29;;;;;;;1.65;0.70;;;23.20;50.40;;;;;;4992177;28;20142;-72
2023/07/01 06:11:54;;;;;;;0.70;0.60;;;23.20;50.50;;;;;;4991899;28;20397;-72
2023/07/01 06:14:20;;;;;;;0.80;0.65;;;23.20;50.50;;;;;;4992137;28;20370;-78
2023/07/01 06:16:46;;;;;;;0.73;0.68;;;23.20;50.50;;;;;;4992027;28;20030;-78
2023/07/01 06:19:11;;;;;;;0.63;0.60;;;23.10;50.50;;;;;;4991801;28;20022;-77
2023/07/01 06:21:37;;;;;;;1.17;0.70;;;23.20;50.60;;;;;;4991775;28;20173;-77
2023/07/01 06:24:03;;;;;;;0.88;0.63;;;23.20;50.80;;;;;;4991953;28;20109;-78
2023/07/01 06:26:29;;;;;;;1.20;0.65;;;23.20;50.70;;;;;;4991832;28;20046;-77
2023/07/01 06:28:55;;;;;;;1.45;0.90;;;23.20;50.60;;;;;;4992325;28;20022;-77
2023/07/01 06:31:20;;;;;;;2.47;1.00;;;23.20;50.70;;;;;;4992017;28;20439;-77
2023/07/01 06:33:46;;;;;;;1.10;0.80;;;23.20;50.80;;;;;;4992090;28;20045;-77
2023/07/01 06:36:13;;;;;;;1.27;0.90;;;23.10;50.90;;;;;;4992078;28;20034;-77
2023/07/01 06:38:40;;;;;;;0.82;0.82;;;23.20;50.90;;;;;;4992018;28;20085;-77
2023/07/01 06:41:06;;;;;;;2.55;0.75;;;23.20;51.00;;;;;;4991967;28;20026;-77
2023/07/01 06:43:32;;;;;;;1.00;0.90;;;23.20;51.00;;;;;;4992462;28;20384;-77
2023/07/01 06:45:59;;;;;;;2.22;1.08;;;23.10;50.90;;;;;;4991898;28;20023;-77
2023/07/01 06:48:25;;;;;;;1.05;0.93;;;23.10;50.90;;;;;;4991771;28;20057;-76
2023/07/01 06:50:50;;;;;;;0.70;0.60;;;23.10;51.00;;;;;;4993852;28;20054;-77
2023/07/01 06:53:16;;;;;;;0.70;0.70;;;23.10;50.90;;;;;;4994384;28;20081;-77
2023/07/01 06:55:42;;;;;;;0.80;0.80;;;23.00;69.20;;;;;;4995034;28;20121;-72
2023/07/01 06:58:07;;;;;;;0.75;0.75;;;23.10;51.70;;;;;;4994916;28;20028;-73
2023/07/01 07:00:33;;;;;;;0.80;0.80;;;23.10;51.10;;;;;;4994963;28;20481;-73
2023/07/01 07:03:00;;;;;;;1.25;0.93;;;23.10;51.10;;;;;;4995196;28;20428;-70
2023/07/01 07:05:26;;;;;;;1.17;0.88;;;23.10;51.10;;;;;;4994815;28;20026;-73
2023/07/01 07:07:52;;;;;;;1.92;0.98;;;23.10;51.10;;;;;;4994939;28;20076;-72
2023/07/01 07:10:18;;;;;;;2.20;1.10;;;23.10;51.20;;;;;;4994783;28;20485;-72
2023/07/01 07:12:43;;;;;;;0.90;0.90;;;23.10;51.20;;;;;;4995333;28;20026;-77
2023/07/01 07:15:09;;;;;;;1.10;1.00;;;23.10;51.20;;;;;;4994832;28;20046;-84
2023/07/01 07:17:35;;;;;;;1.52;0.90;;;23.10;51.20;;;;;;4994968;28;20022;-79
2023/07/01 07:20:02;;;;;;;1.65;0.70;;;23.10;51.30;;;;;;4994712;28;20159;-77
2023/07/01 07:22:28;;;;;;;1.08;0.93;;;23.20;51.20;;;;;;4993161;28;20022;-79
2023/07/01 07:24:55;;;;;;;1.10;1.00;;;23.10;51.30;;;;;;4977322;28;20118;-79
2023/07/01 07:27:21;;;;;;;1.50;0.98;;;;;;;;;;4994316;28;20046;-80
2023/07/01 07:29:47;;;;;;;1.17;1.00;;;23.10;50.90;;;;;;4993160;28;20077;-78
2023/07/01 07:32:13;;;;;;;1.02;0.73;;;;;;;;;;4994541;28;20034;-80
2023/07/01 07:34:39;;;;;;;1.92;1.00;;;23.20;50.80;;;;;;4994721;28;20034;-78
2023/07/01 07:37:05;;;;;;;0.70;0.70;;;23.10;51.40;;;;;;4992998;28;20025;-77
2023/07/01 07:39:31;;;;;;;1.13;1.00;;;23.10;51.50;;;;;;4993443;28;20102;-78
2023/07/01 07:41:57;;;;;;;1.17;0.82;;;23.10;51.50;;;;;;4994728;28;20505;-76
2023/07/01 07:44:22;;;;;;;1.08;1.00;;;23.10;51.60;;;;;;4994425;28;20073;-76
2023/07/01 07:46:48;;;;;;;0.82;0.65;;;23.10;51.70;;;;;;4992801;28;20092;-75
2023/07/01 07:49:14;;;;;;;1.70;0.70;;;23.20;68.80;;;;;;4994063;28;20473;-73
2023/07/01 07:51:40;;;;;;;3.95;1.00;;;;;;;;;;4994198;28;20539;-75
2023/07/01 07:54:05;;;;;;;1.25;0.93;;;23.10;51.10;;;;;;4994075;28;20462;-74
2023/07/01 07:56:31;;;;;;;1.25;0.90;;;23.10;51.70;;;;;;4992613;28;20066;-74
2023/07/01 07:58:57;;;;;;;0.73;0.68;;;23.10;51.60;;;;;;4992728;28;20145;-74
2023/07/01 08:01:22;;;;;;;1.63;0.98;;;23.10;51.70;;;;;;4993521;28;20388;-72
2023/07/01 08:03:48;;;;;;;0.68;0.68;;;23.10;51.70;;;;;;4993873;28;20027;-73
2023/07/01 08:06:13;;;;;;;3.35;0.98;;;23.10;51.70;;;;;;4993762;28;20026;-73
2023/07/01 08:08:39;;;;;;;0.75;0.57;;;23.10;52.00;;;;;;4993651;28;20026;-73
2023/07/01 08:11:04;;;;;;;1.65;0.80;;;23.10;52.10;;;;;;4993652;28;20022;-73
2023/07/01 08:13:30;;;;;;;0.70;0.70;;;23.10;51.80;;;;;;4993563;28;20026;-73
2023/07/01 08:15:57;;;;;;;1.13;0.77;;;23.10;52.00;;;;;;4993435;28;20053;-73
2023/07/01 08:18:23;;;;;;;1.80;0.70;;;23.10;52.10;;;;;;4993421;28;20057;-73
2023/07/01 08:20:50;;;;;;;0.90;0.75;;;23.10;52.30;;;;;;4993322;28;20611;-72
2023/07/01 08:23:16;;;;;;;1.35;0.70;;;23.10;52.50;;;;;;4993403;28;20022;-72
2023/07/01 08:25:43;;;;;;;1.48;0.60;;;23.20;52.30;;;;;;4993198;28;20041;-72
2023/07/01 08:28:08;;;;;;;3.75;1.00;;;23.20;52.40;;;;;;4993662;28;20039;-77
2023/07/01 08:30:34;;;;;;;1.73;0.57;;;23.20;53.20;;;;;;4993321;28;20029;-81
2023/07/01 08:33:00;;;;;;;2.47;0.80;;;23.20;52.70;;;;;;4993262;28;20037;-80
2023/07/01 08:35:28;;;;;;;1.80;0.98;;;23.20;53.00;;;;;;4993385;28;20038;-79
2023/07/01 08:37:54;;;;;;;1.73;0.80;;;23.20;53.00;;;;;;4995570;28;20469;-72
2023/07/01 08:40:20;;;;;;;3.55;0.80;;;23.20;53.50;;;;;;4994201;28;20022;-72
2023/07/01 08:43:01;;;;;;;1.48;0.68;;;23.20;53.60;;;;;;4992953;28;20473;-73
2023/07/01 08:45:29;;;;;;;2.22;0.40;;;23.20;54.30;;;;;;4992902;28;20018;-75
2023/07/01 08:47:59;;;;;;;3.72;0.50;;;23.20;54.10;;;;;;4992953;28;20033;-74
2023/07/01 08:50:30;;;;;;;0.80;0.60;;;23.20;54.00;;;;;;4992959;28;20022;-74
2023/07/01 08:53:05;;;;;;;2.35;0.45;;;23.30;54.20;;;;;;4992895;28;20113;-75
2023/07/01 08:55:32;;;;;;;0.88;0.63;;;23.30;54.00;;;;;;4992924;28;20093;-72
2023/07/01 08:57:58;;;;;;;0.32;0.30;;;23.20;55.20;;;;;;4993011;28;20037;-73
2023/07/01 09:00:25;;;;;;;0.80;0.40;;;23.30;55.50;;;;;;4992785;28;20022;-74
2023/07/01 09:02:52;;;;;;;0.98;0.50;;;23.30;55.50;;;;;;4992821;28;20027;-71
2023/07/01 09:05:18;;;;;;;0.60;0.30;;;23.30;54.30;;;;;;4992763;28;20045;-71
2023/07/01 09:07:44;;;;;;;0.52;0.40;;;23.30;55.50;;;;;;4991387;28;20031;-72
2023/07/01 09:10:11;;;;;;;2.83;0.80;;;23.30;55.20;;;;;;4992677;28;20110;-70
2023/07/01 09:12:37;;;;;;;1.10;0.50;;;23.30;55.50;;;;;;4992181;28;20555;-73
2023/07/01 09:15:05;;;;;;;1.02;0.52;;;23.30;55.90;;;;;;4992948;28;20045;-72
2023/07/01 09:17:42;;;;;;;2.05;0.40;;;23.30;55.80;;;;;;4992592;28;20022;-72
2023/07/01 09:20:12;;;;;;;1.17;0.38;;;23.30;56.40;;;;;;4992491;28;20107;-72
2023/07/01 09:22:39;;;;;;;;;;;23.30;56.10;;;;;;4992949;28;20147;-73
2023/07/01 09:25:05;;;;;;;1.58;0.50;;;23.30;56.10;;;;;;4992535;28;19920;-76
2023/07/01 09:27:49;;;;;;;0.88;0.40;;;23.30;57.00;;;;;;4992644;28;20050;-76
2023/07/01 09:30:24;;;;;;;5.82;0.50;;;23.40;57.60;;;;;;4992945;28;20022;-74
2023/07/01 09:32:51;;;;;;;1.60;0.50;;;23.40;57.50;;;;;;4993009;28;20049;-79
2023/07/01 09:35:17;;;;;;;1.70;0.57;;;23.40;57.80;;;;;;4992746;28;20026;-76
2023/07/01 09:37:43;;;;;;;0.88;0.55;;;23.50;57.50;;;;;;4992835;28;20129;-76
2023/07/01 09:40:29;;;;;;;2.15;0.30;;;23.40;57.40;;;;;;4992339;28;20034;-76
2023/07/01 09:43:15;;;;;;;1.75;0.30;;;23.40;58.00;;;;;;4992265;28;20034;-73
2023/07/01 09:46:00;;;;;;;1.48;0.30;;;23.40;57.30;;;;;;4992218;28;20022;-72
2023/07/01 09:48:52;;;;;;;2.33;0.30;;;23.50;57.10;;;;;;4992295;28;20026;-73
2023/07/01 09:51:49;;;;;;;0.25;0.22;;;23.50;56.90;;;;;;4992229;28;20030;-72
2023/07/01 09:54:36;;;;;;;1.33;0.57;;;23.50;57.20;;;;;;4992074;28;20397;-72
2023/07/01 09:57:21;;;;;;;0.40;0.40;;;23.50;57.40;;;;;;4992190;28;20035;-72
2023/07/01 10:00:10;;;;;;;0.40;0.28;;;23.50;56.60;;;;;;4992545;28;20027;-72
2023/07/01 10:02:54;;;;;;;1.25;0.30;;;23.50;56.80;;;;;;4991904;28;20076;-73
2023/07/01 10:05:42;;;;;;;0.45;0.30;;;22.60;56.20;;;;;;4992035;28;20389;-73
2023/07/01 10:08:28;;;;;;;1.13;0.45;;;23.50;56.40;;;;;;4991988;28;20041;-74
2023/07/01 10:11:18;;;;;;;1.42;0.30;;;23.50;56.40;;;;;;4992020;28;20039;-74
2023/07/01 10:14:05;;;;;;;1.30;0.50;;;23.50;56.40;;;;;;4992238;28;20113;-78
2023/07/01 10:16:51;;;;;;;0.80;0.38;;;23.50;56.40;;;;;;4992349;28;20436;-78
2023/07/01 10:19:37;;;;;;;6.55;0.63;;;23.50;56.40;;;;;;4992279;28;20346;-77
2023/07/01 10:22:29;;;;;;;1.40;0.43;;;23.60;56.30;;;;;;4991997;28;20342;-77
2023/07/01 10:25:27;;;;;;;0.70;0.40;;;23.50;56.20;;;;;;4994562;28;20504;-77
2023/07/01 10:28:14;;;;;;;1.48;0.50;;;23.50;56.30;;;;;;4995835;28;20057;-79
2023/07/01 10:31:03;;;;;;;1.25;0.50;;;23.50;56.10;;;;;;4995590;28;20034;-73
2023/07/01 10:33:50;;;;;;;0.60;0.40;;;23.50;56.40;;;;;;4995569;28;20041;-73
2023/07/01 10:37:22;;;;;;;2.00;0.82;;;23.50;56.30;;;;;;4995416;28;20053;-77
2023/07/01 10:39:48;;;;;;;1.83;0.82;;;23.50;56.60;;;;;;4990443;28;20104;-77
2023/07/01 10:42:31;;;;;;;2.03;0.88;;;23.60;56.90;;;;;;4995696;28;20437;-76
2023/07/01 10:45:11;;;;;;;1.40;0.80;;;23.50;57.20;;;;;;4995595;28;20077;-77
2023/07/01 10:48:03;;;;;;;1.42;0.77;;;23.60;57.50;;;;;;4995571;28;20060;-75
2023/07/01 10:50:29;;;;;;;1.77;0.80;;;;;;;;;;4995321;28;20030;-75
2023/07/01 10:52:58;;;;;;;1.98;0.82;;;23.60;56.80;;;;;;4995195;28;20030;-74
2023/07/01 10:55:46;;;;;;;2.65;1.23;;;23.60;57.40;;;;;;4995342;28;20093;-74
2023/07/01 10:58:28;;;;;;;2.22;1.02;;;23.60;57.60;;;;;;4996297;28;20026;-81
2023/07/01 11:00:55;;;;;;;2.78;0.88;;;23.60;57.60;;;;;;4995987;28;20030;-80
2023/07/01 11:03:39;;;;;;;3.08;1.08;;;23.60;57.70;;;;;;4995770;28;20109;-81
2023/07/01 11:06:07;;;;;;;3.72;1.30;;;23.60;58.30;;;;;;4995970;28;20069;-82
2023/07/01 11:08:42;;;;;;;5.03;1.20;;;23.60;57.90;;;;;;4995694;28;20022;-72
2023/07/01 11:11:08;;;;;;;3.28;1.30;;;23.60;57.90;;;;;;4995516;28;20073;-80
2023/07/01 11:13:38;;;;;;;4.60;1.27;;;;;;;;;;4995043;28;20033;-78
2023/07/01 11:16:09;;;;;;;2.35;1.08;;;23.60;57.40;;;;;;4995019;28;20038;-78
2023/07/01 11:18:43;;;;;;;3.35;1.10;;;23.70;58.00;;;;;;4995212;28;20022;-76
2023/07/01 11:21:11;;;;;;;5.47;1.15;;;23.60;58.00;;;;;;4994759;28;20040;-77
2023/07/01 11:23:41;;;;;;;5.30;1.35;;;23.70;57.90;;;;;;4994593;28;20022;-76
2023/07/01 11:26:08;;;;;;;2.53;1.02;;;23.70;58.00;;;;;;4994168;28;20034;-77
2023/07/01 11:28:37;;;;;;;2.65;1.20;;;23.70;58.00;;;;;;4995077;28;20053;-77
2023/07/01 11:31:20;;;;;;;2.43;1.20;;;23.70;58.40;;;;;;4994644;28;20488;-77
2023/07/01 11:33:48;;;;;;;2.35;1.15;;;23.70;58.10;;;;;;4994700;28;20040;-76
2023/07/01 11:36:17;;;;;;;2.45;1.08;;;23.70;58.20;;;;;;4993640;28;20034;-76
2023/07/01 11:38:47;;;;;;;2.42;1.08;;;23.70;57.90;;;;;;4994561;28;20432;-79
2023/07/01 11:41:23;;;;;;;2.83;1.15;;;23.70;58.10;;;;;;4994745;28;20041;-78
2023/07/01 11:43:49;;;;;;;3.35;1.23;;;23.80;58.20;;;;;;4994303;28;20034;-80
2023/07/01 11:46:33;;;;;;;2.45;0.88;;;23.80;57.90;;;;;;4994780;28;20038;-78
2023/07/01 11:49:21;;;;;;;2.65;0.98;;;23.90;57.80;;;;;;4994429;28;20022;-78
2023/07/01 11:51:57;;;;;;;2.80;1.10;;;23.90;58.00;;;;;;4994450;28;20469;-78
2023/07/01 11:54:44;;;;;;;2.15;0.93;;;24.00;57.90;;;;;;4994430;28;20023;-79
2023/07/01 11:57:17;;;;;;;3.60;1.40;;;23.90;58.10;;;;;;4994139;28;20523;-72
2023/07/01 11:59:46;;;;;;;4.57;1.13;;;24.00;58.00;;;;;;4994065;28;20053;-72
2023/07/01 12:02:12;;;;;;;3.63;1.00;;;24.00;58.00;;;;;;4994098;28;20033;-72
2023/07/01 12:04:37;;;;;;;3.38;1.42;;;24.00;58.20;;;;;;4993846;28;20026;-72
2023/07/01 12:07:12;;;;;;;3.55;1.00;;;24.00;58.10;;;;;;4994168;28;20034;-73
2023/07/01 12:09:40;;;;;;;3.15;1.38;;;24.00;58.30;;;;;;4993930;28;20506;-73
2023/07/01 12:12:07;;;;;;;2.72;0.80;;;24.00;58.10;;;;;;4993849;28;20022;-74
2023/07/01 12:14:33;;;;;;;3.33;1.10;;;24.00;58.30;;;;;;4993819;28;20050;-76
2023/07/01 12:17:01;;;;;;;3.10;1.17;;;24.00;58.20;;;;;;4994147;28;20031;-80
2023/07/01 12:19:29;;;;;;;1.85;1.10;;;24.00;58.50;;;;;;4994056;28;20027;-80
2023/07/01 12:21:56;;;;;;;2.63;0.80;;;24.00;58.60;;;;;;4993548;28;20038;-80
2023/07/01 12:24:23;;;;;;;2.53;0.90;;;24.00;58.60;;;;;;4992340;28;20022;-78
2023/07/01 12:26:51;;;;;;;4.55;0.98;;;24.00;58.40;;;;;;4993664;28;20054;-81
2023/07/01 12:29:18;;;;;;;3.92;1.08;;;24.00;58.40;;;;;;4993403;28;20025;-79
2023/07/01 12:31:44;;;;;;;1.77;1.20;;;24.00;58.60;;;;;;4993602;28;20031;-79
2023/07/01 12:34:10;;;;;;;5.30;0.93;;;24.00;58.40;;;;;;4993339;28;20480;-71
2023/07/01 12:36:37;;;;;;;1.90;1.00;;;24.00;58.50;;;;;;4993338;28;20365;-72
2023/07/01 12:39:07;;;;;;;2.67;0.90;;;24.00;58.50;;;;;;4993446;28;20033;-72
2023/07/01 12:41:36;;;;;;;2.97;0.73;;;24.00;58.70;;;;;;4993553;28;20093;-72
2023/07/01 12:44:04;;;;;;;1.98;0.95;;;24.00;58.70;;;;;;4993006;28;20473;-71
2023/07/01 12:46:31;;;;;;;3.38;0.98;;;24.00;58.80;;;;;;4992935;28;20548;-72
2023/07/01 12:48:57;;;;;;;1.48;0.70;;;24.00;58.60;;;;;;4993001;28;20133;-73
2023/07/01 12:51:24;;;;;;;2.83;0.57;;;24.00;58.70;;;;;;4993313;28;20447;-72
2023/07/01 12:53:50;;;;;;;2.53;1.23;;;24.00;58.40;;;;;;4992889;28;20032;-73
2023/07/01 12:56:19;;;;;;;2.90;0.93;;;24.00;58.70;;;;;;4992828;28;20033;-72
2023/07/01 12:58:45;;;;;;;2.47;0.88;;;24.10;58.50;;;;;;4993084;28;20036;-72
2023/07/01 13:01:11;;;;;;;2.00;1.00;;;24.20;58.30;;;;;;4993072;28;20045;-72